Time;durP1;ratioP1;P1;durP2;ratioP2;P2;SDS_P1;SDS_P2;PMS_P1;PMS_P2;Temp;Humidity;BMP_temperature;BMP_pressure;BME280_temperature;BME280_humidity;BME280_pressure;Samples;Min_cycle;Max_cycle;Signal;HPM_P1;HPM_P2
2022/06/02 00:01:04;;;;;;;0.32;0.28;;;;;;;;;;4972209;28;20053;-84
2022/06/02 00:04:07;;;;;;;0.35;0.25;;;;;;;;;;4970184;28;20058;-82
2022/06/02 00:06:35;;;;;;;;;;;;;;;;;;4972626;28;20035;-84
2022/06/02 00:09:00;;;;;;;0.55;0.55;;;;;;;;;;4975167;28;20379;-86
2022/06/02 00:11:37;;;;;;;1.73;1.60;;;;;;;;;;4974621;28;20062;-87
2022/06/02 00:14:12;;;;;;;0.82;0.80;;;;;;;;;;4968657;28;20022;-80
2022/06/02 00:16:59;;;;;;;0.70;0.70;;;;;;;;;;4987787;28;20061;-88
2022/06/02 00:19:41;;;;;;;0.75;0.47;;;;;;;;;;4986243;28;20023;-86
2022/06/02 00:22:34;;;;;;;1.13;1.03;;;;;;;;;;4993824;28;20026;-87
2022/06/02 00:25:05;;;;;;;1.08;0.85;;;;;;;;;;4986412;28;20041;-85
2022/06/02 00:28:02;;;;;;;1.52;1.02;;;;;;;;;;4995401;28;20127;-84
2022/06/02 00:30:47;;;;;;;1.48;0.93;;;;;;;;;;4996530;28;20057;-86
2022/06/02 00:33:52;;;;;;;1.02;0.52;;;;;;;;;;4987241;28;20022;-86
2022/06/02 00:36:30;;;;;;;2.08;1.55;;;;;;;;;;4988268;28;20046;-85
2022/06/02 00:38:58;;;;;;;2.20;2.00;;;;;;;;;;4973753;28;20027;-86
2022/06/02 00:41:55;;;;;;;1.10;0.55;;;;;;;;;;4975984;28;20101;-86
2022/06/02 00:44:22;;;;;;;2.67;1.30;;;;;;;;;;5008932;28;20026;-87
2022/06/02 00:47:04;;;;;;;0.57;0.50;;;;;;;;;;4980071;28;20042;-87
2022/06/02 00:49:40;;;;;;;0.60;0.52;;;;;;;;;;4977507;28;20026;-85
2022/06/02 00:52:17;;;;;;;0.65;0.65;;;;;;;;;;5004798;28;20388;-87
2022/06/02 00:58:18;;;;;;;0.55;0.55;;;;;;;;;;4973269;28;20117;-86
2022/06/02 01:00:48;;;;;;;0.43;0.43;;;;;;;;;;4978730;28;20101;-87
2022/06/02 01:03:16;;;;;;;2.55;1.27;;;;;;;;;;4978933;28;20073;-86
2022/06/02 01:05:55;;;;;;;0.40;0.40;;;;;;;;;;4976727;28;20054;-86
2022/06/02 01:08:34;;;;;;;0.90;0.90;;;;;;;;;;4979100;28;20038;-85
2022/06/02 01:11:18;;;;;;;0.82;0.75;;;;;;;;;;4972174;28;20429;-87
2022/06/02 01:14:33;;;;;;;0.93;0.90;;;;;;;;;;4976617;28;20040;-86
2022/06/02 01:17:07;;;;;;;0.70;0.25;;;;;;;;;;4981198;28;20049;-85
2022/06/02 01:20:03;;;;;;;0.85;0.65;;;;;;;;;;4977757;28;20031;-85
2022/06/02 01:22:46;;;;;;;0.52;0.40;;;;;;;;;;4959565;28;20046;-85
2022/06/02 01:25:14;;;;;;;0.10;0.10;;;;;;;;;;4976582;28;20037;-86
2022/06/02 01:28:17;;;;;;;1.02;1.00;;;;;;;;;;4975000;28;20061;-85
2022/06/02 01:30:54;;;;;;;1.30;1.10;;;;;;;;;;4982065;28;20030;-85
2022/06/02 01:33:43;;;;;;;0.68;0.68;;;;;;;;;;4980829;28;20035;-85
2022/06/02 01:36:19;;;;;;;1.20;0.65;;;;;;;;;;4984880;28;20054;-83
2022/06/02 01:38:56;;;;;;;0.32;0.32;;;;;;;;;;4971835;28;20031;-85
2022/06/02 01:41:45;;;;;;;0.52;0.50;;;;;;;;;;4980813;28;20085;-82
2022/06/02 01:44:16;;;;;;;1.38;0.43;;;;;;;;;;4979615;28;20019;-86
2022/06/02 01:46:46;;;;;;;0.68;0.63;;;;;;;;;;4981193;28;20023;-86
2022/06/02 01:49:32;;;;;;;1.00;0.65;;;;;;;;;;5010485;28;20046;-84
2022/06/02 01:52:01;;;;;;;1.98;1.33;;;;;;;;;;4987958;28;20037;-84
2022/06/02 01:54:35;;;;;;;2.13;1.30;;;;;;;;;;4976214;28;20035;-85
2022/06/02 01:57:35;;;;;;;0.60;0.50;;;;;;;;;;4990542;28;20035;-84
2022/06/02 02:00:04;;;;;;;1.00;1.00;;;;;;;;;;4969175;28;20046;-84
2022/06/02 02:02:40;;;;;;;0.98;0.85;;;;;;;;;;4970095;28;20037;-84
2022/06/02 02:05:23;;;;;;;1.05;0.82;;;;;;;;;;4975551;28;20405;-83
2022/06/02 02:08:03;;;;;;;1.77;1.55;;;;;;;;;;4975694;28;20031;-86
2022/06/02 02:10:40;;;;;;;2.08;1.90;;;;;;;;;;4976112;28;20085;-84
2022/06/02 02:13:34;;;;;;;3.28;1.48;;;;;;;;;;4972664;28;20396;-79
2022/06/02 02:15:59;;;;;;;1.67;1.27;;;;;;;;;;4991646;28;20059;-85
2022/06/02 02:18:35;;;;;;;2.35;0.68;;;;;;;;;;4973584;28;20399;-86
2022/06/02 02:21:03;;;;;;;1.27;1.08;;;;;;;;;;4975695;28;20333;-86
2022/06/02 02:23:35;;;;;;;1.67;1.58;;;;;;;;;;4975756;28;20031;-87
2022/06/02 02:26:23;;;;;;;1.65;1.55;;;;;;;;;;4977760;28;20077;-86
2022/06/02 02:29:08;;;;;;;2.33;1.92;;;;;;;;;;4989141;28;20027;-86
2022/06/02 02:31:48;;;;;;;4.00;1.85;;;;;;;;;;4976157;28;20114;-85
2022/06/02 02:34:43;;;;;;;1.25;1.08;;;;;;;;;;4975162;28;20456;-86
2022/06/02 02:37:08;;;;;;;2.95;1.38;;;;;;;;;;4975385;28;20356;-84
2022/06/02 02:39:33;;;;;;;0.90;0.82;;;;;;;;;;4978562;28;20089;-86
2022/06/02 02:42:03;;;;;;;1.60;1.50;;;;;;;;;;4974919;28;20034;-88
2022/06/02 02:44:34;;;;;;;2.05;1.75;;;;;;;;;;4975190;28;20026;-86
2022/06/02 02:47:18;;;;;;;3.25;1.77;;;;;;;;;;4974874;28;20364;-87
2022/06/02 02:49:48;;;;;;;1.48;1.20;;;;;;;;;;4976918;28;20019;-86
2022/06/02 02:52:22;;;;;;;1.02;0.90;;;;;;;;;;4974542;28;20031;-87
2022/06/02 02:54:57;;;;;;;2.03;1.88;;;;;;;;;;5005635;28;20510;-87
2022/06/02 02:57:47;;;;;;;1.48;1.00;;;;;;;;;;4974340;28;20030;-86
2022/06/02 03:00:22;;;;;;;1.83;1.60;;;;;;;;;;4975133;28;20027;-84
2022/06/02 03:03:12;;;;;;;1.75;0.95;;;;;;;;;;4974916;28;20039;-87
2022/06/02 03:06:01;;;;;;;2.38;0.82;;;;;;;;;;4974776;28;20041;-85
2022/06/02 03:09:09;;;;;;;0.98;0.93;;;;;;;;;;4971156;28;20384;-86
2022/06/02 03:11:53;;;;;;;2.72;1.20;;;;;;;;;;4937911;29;20514;-88
2022/06/02 03:14:34;;;;;;;0.98;0.70;;;;;;;;;;4972906;28;20165;-88
2022/06/02 03:17:22;;;;;;;6.65;1.75;;;;;;;;;;4972738;28;20117;-78
2022/06/02 03:19:53;;;;;;;2.05;1.08;;;;;;;;;;4973175;28;20111;-85
2022/06/02 03:22:27;;;;;;;3.03;1.08;;;;;;;;;;4969552;28;20498;-84
2022/06/02 03:25:03;;;;;;;0.88;0.88;;;;;;;;;;4967067;28;20042;-84
2022/06/02 03:27:43;;;;;;;3.28;1.50;;;;;;;;;;4969017;28;20026;-84
2022/06/02 03:30:30;;;;;;;0.82;0.82;;;;;;;;;;4968410;28;20065;-82
2022/06/02 03:33:46;;;;;;;2.22;1.92;;;;;;;;;;4972562;28;20066;-82
2022/06/02 03:36:52;;;;;;;2.20;0.98;;;;;;;;;;4971141;28;20074;-86
2022/06/02 03:39:46;;;;;;;3.03;1.77;;;;;;;;;;4953706;29;20045;-84
2022/06/02 03:42:27;;;;;;;4.05;1.83;;;;;;;;;;4970807;28;20490;-85
2022/06/02 03:45:03;;;;;;;1.95;1.20;;;;;;;;;;4998041;28;20455;-86
2022/06/02 03:47:41;;;;;;;2.38;2.17;;;;;;;;;;4975421;28;20022;-83
2022/06/02 03:50:29;;;;;;;1.88;1.02;;;;;;;;;;4971988;28;20531;-85
2022/06/02 03:53:06;;;;;;;2.08;1.88;;;;;;;;;;4967780;28;20471;-85
2022/06/02 03:55:42;;;;;;;4.03;1.90;;;;;;;;;;4974687;28;20046;-84
2022/06/02 03:58:52;;;;;;;1.48;1.38;;;;;;;;;;4974705;28;20442;-86
2022/06/02 04:01:23;;;;;;;1.17;0.65;;;;;;;;;;4978035;28;20041;-86
2022/06/02 04:04:16;;;;;;;2.03;1.60;;;;;;;;;;4961937;28;20078;-85
2022/06/02 04:06:44;;;;;;;;;;;;;;;;;;4974270;28;20512;-85
2022/06/02 04:09:44;;;;;;;1.48;1.00;;;;;;;;;;4977557;28;20399;-84
2022/06/02 04:15:42;;;;;;;1.00;0.82;;;;;;;;;;4976354;28;20049;-85
2022/06/02 04:18:27;;;;;;;2.67;1.98;;;;;;;;;;4980419;28;20034;-84
2022/06/02 04:21:12;;;;;;;8.52;2.50;;;;;;;;;;4977020;28;20030;-84
2022/06/02 04:24:11;;;;;;;2.28;1.25;;;;;;;;;;4977520;28;20445;-86
2022/06/02 04:27:23;;;;;;;2.95;1.83;;;;;;;;;;4973049;28;20073;-84
2022/06/02 04:30:03;;;;;;;2.05;1.52;;;;;;;;;;4972261;28;20039;-85
2022/06/02 04:32:50;;;;;;;2.58;1.85;;;;;;;;;;4984630;28;20030;-85
2022/06/02 04:35:15;;;;;;;1.42;1.33;;;;;;;;;;4974370;28;20035;-85
2022/06/02 04:37:50;;;;;;;2.92;2.38;;;;;;;;;;4977425;28;20174;-84
2022/06/02 04:40:56;;;;;;;1.23;1.05;;;;;;;;;;4978007;28;20048;-85
2022/06/02 04:43:21;;;;;;;2.10;1.85;;;;;;;;;;4975791;28;20400;-83
2022/06/02 04:45:53;;;;;;;7.07;3.33;;;;;;;;;;4975517;28;20169;-80
2022/06/02 04:48:27;;;;;;;1.23;1.13;;;;;;;;;;4985139;28;20030;-85
2022/06/02 04:51:20;;;;;;;3.70;1.92;;;;;;;;;;4977060;28;20057;-83
2022/06/02 04:54:04;;;;;;;3.45;1.95;;;;;;;;;;4975923;28;20031;-84
2022/06/02 04:56:34;;;;;;;1.30;1.20;;;;;;;;;;4978824;28;20046;-84
2022/06/02 04:59:07;;;;;;;2.15;1.88;;;;;;;;;;4977683;28;20085;-85
2022/06/02 05:02:03;;;;;;;4.82;2.80;;;;;;;;;;4975901;28;20428;-84
2022/06/02 05:04:53;;;;;;;2.90;2.20;;;;;;;;;;4975107;28;20023;-85
2022/06/02 05:07:20;;;;;;;1.35;0.80;;;;;;;;;;4983936;28;20027;-82
2022/06/02 05:09:52;;;;;;;2.53;1.58;;;;;;;;;;4976924;28;20459;-85
2022/06/02 05:12:29;;;;;;;2.53;2.33;;;;;;;;;;4976221;28;20411;-83
2022/06/02 05:15:28;;;;;;;2.67;2.42;;;;;;;;;;4985880;28;20099;-86
2022/06/02 05:18:12;;;;;;;1.42;1.30;;;;;;;;;;4976232;28;20368;-84
2022/06/02 05:21:07;;;;;;;1.75;1.65;;;;;;;;;;4971752;28;20059;-84
2022/06/02 05:24:00;;;;;;;1.75;1.25;;;;;;;;;;4977390;28;20035;-83
2022/06/02 05:26:52;;;;;;;2.20;1.85;;;;;;;;;;4977567;28;20165;-83
2022/06/02 05:30:02;;;;;;;2.25;1.58;;;;;;;;;;4976435;28;20038;-83
2022/06/02 05:32:56;;;;;;;1.80;1.63;;;;;;;;;;4975904;28;20070;-86
2022/06/02 05:35:36;;;;;;;3.05;2.05;;;;;;;;;;4995240;28;20038;-85
2022/06/02 05:38:30;;;;;;;4.43;2.35;;;;;;;;;;4979944;28;20035;-86
2022/06/02 05:41:30;;;;;;;2.10;1.63;;;;;;;;;;4978452;28;20042;-80
2022/06/02 05:44:20;;;;;;;3.35;2.28;;;;;;;;;;4988136;28;20035;-85
2022/06/02 05:47:11;;;;;;;3.42;2.45;;;;;;;;;;4982149;28;20039;-85
2022/06/02 05:49:42;;;;;;;2.72;1.88;;;;;;;;;;4995676;28;20095;-80
2022/06/02 05:52:34;;;;;;;4.28;1.58;;;;;;;;;;4999482;28;20030;-85
2022/06/02 05:55:00;;;;;;;2.45;1.85;;;;;;;;;;4994668;28;20018;-85
2022/06/02 05:57:41;;;;;;;2.88;2.35;;;;;;;;;;4997535;28;20474;-85
2022/06/02 06:00:45;;;;;;;3.03;2.03;;;;;;;;;;4987968;28;20046;-87
2022/06/02 06:03:18;;;;;;;3.95;1.77;;;;;;;;;;4982700;28;20058;-86
2022/06/02 06:05:46;;;;;;;3.45;1.67;;;;;;;;;;4979301;28;20030;-89
2022/06/02 06:08:42;;;;;;;2.15;1.95;;;;;;;;;;4976185;28;20061;-84
2022/06/02 06:11:20;;;;;;;3.97;2.08;;;;;;;;;;4976520;28;20532;-84
2022/06/02 06:14:19;;;;;;;1.33;0.85;;;;;;;;;;4975260;28;20348;-85
2022/06/02 06:17:03;;;;;;;3.78;2.03;;;;;;;;;;4973815;28;20050;-85
2022/06/02 06:19:31;;;;;;;2.80;1.55;;;;;;;;;;4993770;28;20029;-87
2022/06/02 06:22:30;;;;;;;2.15;1.88;;;;;;;;;;4974318;28;20121;-85
2022/06/02 06:25:04;;;;;;;1.85;1.70;;;;;;;;;;4973840;28;20039;-87
2022/06/02 06:27:34;;;;;;;1.20;1.15;;;;;;;;;;4974515;28;20422;-87
2022/06/02 06:30:06;;;;;;;2.22;1.48;;;;;;;;;;4956101;28;20023;-82
2022/06/02 06:32:51;;;;;;;3.58;1.88;;;;;;;;;;4973060;28;20483;-83
2022/06/02 06:35:31;;;;;;;2.05;1.50;;;;;;;;;;4976669;28;20468;-85
2022/06/02 06:38:01;;;;;;;1.08;0.57;;;;;;;;;;4975178;28;20113;-83
2022/06/02 06:40:35;;;;;;;2.70;1.63;;;;;;;;;;4975839;28;20026;-86
2022/06/02 06:43:28;;;;;;;1.15;0.98;;;;;;;;;;4976077;28;20023;-86
2022/06/02 06:45:56;;;;;;;1.50;1.30;;;;;;;;;;4972296;28;20361;-85
2022/06/02 06:48:35;;;;;;;1.80;1.55;;;;;;;;;;4974749;28;20484;-85
2022/06/02 06:51:16;;;;;;;1.08;1.02;;;;;;;;;;4973761;28;20023;-85
2022/06/02 06:54:10;;;;;;;3.53;1.88;;;;;;;;;;4976213;28;20467;-84
2022/06/02 06:56:58;;;;;;;1.55;1.02;;;;;;;;;;4975443;28;20125;-84
2022/06/02 06:59:49;;;;;;;2.70;1.90;;;;;;;;;;4971424;28;20336;-83
2022/06/02 07:02:35;;;;;;;1.50;1.35;;;;;;;;;;4970847;28;20026;-85
2022/06/02 07:05:13;;;;;;;2.47;1.30;;;;;;;;;;4975344;28;20326;-86
2022/06/02 07:08:04;;;;;;;0.75;0.40;;;;;;;;;;4976361;28;20390;-84
2022/06/02 07:10:44;;;;;;;2.53;1.55;;;;;;;;;;4973956;28;20026;-86
2022/06/02 07:13:13;;;;;;;2.35;1.80;;;;;;;;;;5006616;28;20030;-85
2022/06/02 07:15:45;;;;;;;2.58;1.45;;;;;;;;;;4975861;28;20038;-87
2022/06/02 07:18:29;;;;;;;4.05;1.63;;;;;;;;;;4974315;28;20047;-86
2022/06/02 07:21:25;;;;;;;2.58;1.45;;;;;;;;;;5001980;28;20038;-83
2022/06/02 07:24:09;;;;;;;4.70;2.25;;;;;;;;;;4974870;28;20031;-87
2022/06/02 07:27:03;;;;;;;1.55;1.13;;;;;;;;;;4979677;28;20030;-86
2022/06/02 07:30:24;;;;;;;1.17;1.08;;;;;;;;;;4974741;28;20409;-83
2022/06/02 07:32:55;;;;;;;2.00;0.63;;;;;;;;;;4937765;28;20079;-84
2022/06/02 07:35:35;;;;;;;2.28;0.98;;;;;;;;;;4992745;28;20015;-86
2022/06/02 07:38:26;;;;;;;1.63;1.40;;;;;;;;;;4983034;28;20053;-88
2022/06/02 07:41:19;;;;;;;1.17;0.77;;;;;;;;;;4982792;28;20031;-86
2022/06/02 07:44:09;;;;;;;2.55;1.05;;;;;;;;;;4975537;28;20030;-84
2022/06/02 07:46:46;;;;;;;4.18;1.73;;;;;;;;;;4984088;28;20476;-87
2022/06/02 07:49:27;;;;;;;2.33;1.23;;;;;;;;;;4972017;28;20026;-86
2022/06/02 07:52:08;;;;;;;2.60;1.20;;;;;;;;;;4972692;28;20046;-86
2022/06/02 07:54:48;;;;;;;1.40;1.17;;;;;;;;;;4975052;28;20026;-85
2022/06/02 07:57:43;;;;;;;1.95;1.00;;;;;;;;;;4977663;28;20624;-87
2022/06/02 08:00:27;;;;;;;1.40;1.20;;;;;;;;;;4972287;28;20049;-83
2022/06/02 08:03:20;;;;;;;1.13;0.90;;;;;;;;;;4979632;28;20029;-85
2022/06/02 08:05:51;;;;;;;;;;;;;;;;;;4975542;28;20034;-85
2022/06/02 08:08:20;;;;;;;1.10;0.55;;;;;;;;;;4975263;28;20000;-86
2022/06/02 08:11:02;;;;;;;1.27;0.63;;;;;;;;;;4974312;28;20030;-86
2022/06/02 08:13:33;;;;;;;1.03;0.93;;;;;;;;;;4974899;28;20467;-87
2022/06/02 08:16:15;;;;;;;0.65;0.65;;;;;;;;;;4974495;28;20042;-85
2022/06/02 08:18:59;;;;;;;1.45;0.93;;;;;;;;;;4972647;28;20181;-81
2022/06/02 08:21:43;;;;;;;1.60;1.48;;;;;;;;;;4973346;28;20453;-83
2022/06/02 08:24:26;;;;;;;0.98;0.93;;;;;;;;;;4970971;28;20037;-85
2022/06/02 08:27:22;;;;;;;0.40;0.40;;;;;;;;;;4972422;28;20374;-87
2022/06/02 08:29:56;;;;;;;1.17;1.00;;;;;;;;;;4977201;28;20027;-86
2022/06/02 08:32:34;;;;;;;0.88;0.82;;;;;;;;;;4984349;28;20026;-84
2022/06/02 08:35:08;;;;;;;0.70;0.70;;;;;;;;;;4973592;28;20023;-84
2022/06/02 08:37:55;;;;;;;1.25;0.88;;;;;;;;;;4974399;28;20471;-88
2022/06/02 08:41:28;;;;;;;0.63;0.60;;;;;;;;;;4973709;28;20027;-86
2022/06/02 08:44:18;;;;;;;0.93;0.88;;;;;;;;;;4974370;28;20034;-87
2022/06/02 08:47:11;;;;;;;0.63;0.63;;;;;;;;;;4975838;28;20058;-81
2022/06/02 08:50:35;;;;;;;1.00;0.40;;;;;;;;;;4977900;28;20031;-81
2022/06/02 08:53:38;;;;;;;0.85;0.65;;;;;;;;;;4947961;28;20475;-86
2022/06/02 08:56:34;;;;;;;;;;;;;;;;;;4976995;28;20034;-85
2022/06/02 08:59:31;;;;;;;1.15;0.63;;;;;;;;;;4963958;28;19914;-84
2022/06/02 09:02:14;;;;;;;1.40;0.68;;;;;;;;;;4960542;28;20118;-86
2022/06/02 09:05:17;;;;;;;0.40;0.32;;;;;;;;;;4976869;28;20058;-85
2022/06/02 09:08:25;;;;;;;0.65;0.65;;;;;;;;;;4975717;28;20202;-87
2022/06/02 09:11:15;;;;;;;1.23;1.02;;;;;;;;;;4979535;28;20054;-82
2022/06/02 09:14:27;;;;;;;0.45;0.45;;;;;;;;;;4957788;28;20035;-78
2022/06/02 09:17:07;;;;;;;0.90;0.82;;;;;;;;;;4975315;28;20046;-77
2022/06/02 09:19:34;;;;;;;0.82;0.75;;;;;;;;;;4975082;28;20054;-76
2022/06/02 09:22:13;;;;;;;4.43;1.02;;;;;;;;;;4958222;28;20039;-77
2022/06/02 09:24:53;;;;;;;0.60;0.60;;;;;;;;;;4971018;28;20031;-76
2022/06/02 09:27:34;;;;;;;0.65;0.60;;;;;;;;;;4971892;28;20031;-76
2022/06/02 09:30:07;;;;;;;0.90;0.57;;;;;;;;;;4973160;28;20429;-78
2022/06/02 09:33:33;;;;;;;0.60;0.52;;;;;;;;;;4990897;28;20043;-77
2022/06/02 09:36:08;;;;;;;0.70;0.30;;;;;;;;;;4987374;28;20503;-78
2022/06/02 09:38:49;;;;;;;0.98;0.50;;;;;;;;;;4972946;28;20041;-77
2022/06/02 09:41:45;;;;;;;1.65;0.32;;;;;;;;;;4974818;28;20030;-77
2022/06/02 09:44:10;;;;;;;0.93;0.70;;;;;;;;;;4976333;28;20527;-77
2022/06/02 09:46:45;;;;;;;0.45;0.43;;;;;;;;;;4969800;28;20022;-77
2022/06/02 09:49:29;;;;;;;0.45;0.40;;;;;;;;;;4974629;28;20055;-77
2022/06/02 09:52:39;;;;;;;2.28;0.60;;;;;;;;;;4962096;28;20393;-76
2022/06/02 09:55:04;;;;;;;1.10;0.77;;;;;;;;;;4964256;28;20051;-77
2022/06/02 09:58:05;;;;;;;0.63;0.60;;;;;;;;;;4976168;28;20160;-80
2022/06/02 10:01:04;;;;;;;0.82;0.75;;;;;;;;;;4972806;28;20109;-81
2022/06/02 10:04:18;;;;;;;0.35;0.35;;;;;;;;;;4977328;28;20030;-81
2022/06/02 10:07:14;;;;;;;0.40;0.40;;;;;;;;;;4974977;28;20062;-81
2022/06/02 10:10:02;;;;;;;0.57;0.30;;;;;;;;;;4977251;28;20087;-79
2022/06/02 10:12:54;;;;;;;0.63;0.45;;;;;;;;;;4990707;28;20114;-80
2022/06/02 10:15:19;;;;;;;0.28;0.22;;;;;;;;;;4970085;28;20058;-79
2022/06/02 10:18:17;;;;;;;1.13;0.60;;;;;;;;;;4977118;28;20066;-80
2022/06/02 10:20:56;;;;;;;0.95;0.57;;;;;;;;;;4965864;28;20058;-79
2022/06/02 10:24:00;;;;;;;1.10;0.52;;;;;;;;;;4976186;28;20026;-80
2022/06/02 10:26:38;;;;;;;0.47;0.47;;;;;;;;;;4976037;28;20089;-80
2022/06/02 10:29:43;;;;;;;0.30;0.30;;;;;;;;;;4974522;28;20038;-78
2022/06/02 10:32:46;;;;;;;0.75;0.47;;;;;;;;;;4974839;28;20466;-78
2022/06/02 10:35:23;;;;;;;0.55;0.43;;;;;;;;;;4980265;28;20042;-80
2022/06/02 10:38:20;;;;;;;0.80;0.40;;;;;;;;;;4974339;28;20030;-79
2022/06/02 10:41:10;;;;;;;0.35;0.20;;;;;;;;;;4981477;28;20404;-78
2022/06/02 10:44:01;;;;;;;1.27;0.73;;;;;;;;;;4975313;28;20034;-77
2022/06/02 10:46:55;;;;;;;1.10;0.57;;;;;;;;;;4969826;28;20051;-78
2022/06/02 10:49:38;;;;;;;0.43;0.40;;;;;;;;;;4975572;28;20034;-88
2022/06/02 10:52:25;;;;;;;0.25;0.25;;;;;;;;;;4973920;28;20030;-81
2022/06/02 10:55:25;;;;;;;0.30;0.28;;;;;;;;;;4978680;28;20026;-80
2022/06/02 10:57:56;;;;;;;1.17;0.30;;;;;;;;;;4976278;28;20026;-80
2022/06/02 11:00:40;;;;;;;0.90;0.73;;;;;;;;;;4975559;28;20031;-81
2022/06/02 11:03:31;;;;;;;4.80;1.10;;;;;;;;;;4975467;28;20782;-79
2022/06/02 11:06:21;;;;;;;0.60;0.45;;;;;;;;;;4994749;28;20026;-82
2022/06/02 11:09:11;;;;;;;0.90;0.90;;;;;;;;;;4972412;28;20035;-82
2022/06/02 11:11:47;;;;;;;0.32;0.32;;;;;;;;;;4975869;28;20030;-81
2022/06/02 11:14:50;;;;;;;0.82;0.73;;;;;;;;;;4975029;28;20058;-82
2022/06/02 11:17:28;;;;;;;0.63;0.40;;;;;;;;;;4973357;28;20030;-81
2022/06/02 11:20:11;;;;;;;0.50;0.50;;;;;;;;;;4973579;28;20034;-81
2022/06/02 11:22:55;;;;;;;3.75;0.85;;;;;;;;;;4975753;28;20041;-81
2022/06/02 11:25:22;;;;;;;0.20;0.20;;;;;;;;;;4975859;28;20076;-80
2022/06/02 11:28:18;;;;;;;0.40;0.40;;;;;;;;;;4976010;28;20045;-80
2022/06/02 11:31:04;;;;;;;0.43;0.43;;;;;;;;;;4975367;28;20031;-82
2022/06/02 11:33:48;;;;;;;0.28;0.28;;;;;;;;;;4975664;28;20455;-81
2022/06/02 11:36:43;;;;;;;2.75;0.70;;;;;;;;;;4975425;28;20046;-82
2022/06/02 11:39:27;;;;;;;0.47;0.43;;;;;;;;;;4975784;28;20034;-81
2022/06/02 11:42:29;;;;;;;0.40;0.40;;;;;;;;;;4975317;28;20030;-82
2022/06/02 11:45:16;;;;;;;0.25;0.25;;;;;;;;;;4975446;28;20031;-82
2022/06/02 11:47:47;;;;;;;0.45;0.45;;;;;;;;;;4958254;28;20037;-81
2022/06/02 11:50:18;;;;;;;0.50;0.50;;;;;;;;;;4969200;28;20023;-81
2022/06/02 11:52:46;;;;;;;0.28;0.28;;;;;;;;;;4975398;28;20037;-82
2022/06/02 11:55:33;;;;;;;0.47;0.40;;;;;;;;;;4974299;28;20046;-82
2022/06/02 11:58:24;;;;;;;0.45;0.45;;;;;;;;;;4975490;28;20018;-81
2022/06/02 12:00:58;;;;;;;0.50;0.47;;;;;;;;;;4968892;28;20097;-82
2022/06/02 12:03:41;;;;;;;0.47;0.47;;;;;;;;;;4975628;28;20037;-82
2022/06/02 12:06:26;;;;;;;0.52;0.50;;;;;;;;;;4974742;28;20029;-81
2022/06/02 12:09:06;;;;;;;0.20;0.20;;;;;;;;;;4976030;28;20037;-81
2022/06/02 12:11:31;;;;;;;0.52;0.32;;;;;;;;;;4968709;28;20023;-81
2022/06/02 12:14:11;;;;;;;1.30;0.82;;;;;;;;;;4975537;28;20461;-80
2022/06/02 12:16:54;;;;;;;0.40;0.38;;;;;;;;;;4976021;28;20425;-81
2022/06/02 12:19:36;;;;;;;0.75;0.70;;;;;;;;;;4975117;28;20030;-80
2022/06/02 12:22:16;;;;;;;0.20;0.20;;;;;;;;;;4975139;28;20023;-81
2022/06/02 12:25:05;;;;;;;1.30;0.77;;;;;;;;;;4973591;28;20058;-79
2022/06/02 12:27:55;;;;;;;0.80;0.52;;;;;;;;;;4978049;28;20062;-82
2022/06/02 12:30:39;;;;;;;0.85;0.68;;;;;;;;;;4978820;28;20027;-81
2022/06/02 12:33:35;;;;;;;0.20;0.20;;;;;;;;;;4978972;28;20054;-82
2022/06/02 12:36:06;;;;;;;0.32;0.32;;;;;;;;;;4978649;28;20041;-79
2022/06/02 12:38:53;;;;;;;0.50;0.38;;;;;;;;;;4978771;28;20110;-80
2022/06/02 12:41:42;;;;;;;4.47;0.85;;;;;;;;;;4978614;28;20031;-80
2022/06/02 12:44:29;;;;;;;0.82;0.35;;;;;;;;;;4978578;28;20359;-79
2022/06/02 12:47:03;;;;;;;0.63;0.63;;;;;;;;;;4978897;28;20356;-79
2022/06/02 12:49:46;;;;;;;1.27;0.77;;;;;;;;;;4978430;28;20031;-80
2022/06/02 12:52:14;;;;;;;1.38;0.60;;;;;;;;;;4978422;28;20035;-79
2022/06/02 12:54:40;;;;;;;0.38;0.35;;;;;;;;;;4978288;28;20066;-80
2022/06/02 12:57:10;;;;;;;0.43;0.43;;;;;;;;;;4977541;28;20030;-79
2022/06/02 12:59:43;;;;;;;0.40;0.32;;;;;;;;;;4976461;28;20066;-80
2022/06/02 13:02:09;;;;;;;0.10;0.10;;;;;;;;;;4980613;28;20030;-79
2022/06/02 13:04:53;;;;;;;0.20;0.20;;;;;;;;;;4989556;28;20041;-78
2022/06/02 13:07:33;;;;;;;0.52;0.52;;;;;;;;;;4989817;28;20054;-81
2022/06/02 13:10:29;;;;;;;0.30;0.30;;;;;;;;;;4987870;28;20447;-80
2022/06/02 13:13:13;;;;;;;0.10;0.10;;;;;;;;;;4989084;28;20050;-79
2022/06/02 13:15:58;;;;;;;0.30;0.30;;;;;;;;;;4984598;28;20026;-80
2022/06/02 13:18:45;;;;;;;0.77;0.77;;;;;;;;;;4983753;28;20033;-79
2022/06/02 13:21:32;;;;;;;0.15;0.15;;;;;;;;;;4978110;28;20114;-80
2022/06/02 13:24:27;;;;;;;0.15;0.15;;;;;;;;;;4977933;28;20025;-79
2022/06/02 13:27:25;;;;;;;0.50;0.30;;;;;;;;;;4977958;28;20475;-79
2022/06/02 13:30:15;;;;;;;0.20;0.10;;;;;;;;;;4970571;28;20081;-80
2022/06/02 13:32:58;;;;;;;0.30;0.25;;;;;;;;;;4977664;28;20102;-79
2022/06/02 13:35:35;;;;;;;0.82;0.30;;;;;;;;;;4959454;28;20034;-79
2022/06/02 13:38:18;;;;;;;0.20;0.20;;;;;;;;;;4977526;28;20034;-81
2022/06/02 13:40:55;;;;;;;0.20;0.20;;;;;;;;;;4971666;28;20099;-79
2022/06/02 13:43:26;;;;;;;0.85;0.82;;;;;;;;;;4977556;28;20034;-80
2022/06/02 13:46:03;;;;;;;0.85;0.50;;;;;;;;;;4977505;28;20516;-79
2022/06/02 13:48:41;;;;;;;0.15;0.15;;;;;;;;;;4977484;28;20062;-79
2022/06/02 13:51:10;;;;;;;0.10;0.10;;;;;;;;;;4977196;28;20038;-79
2022/06/02 13:57:30;;;;;;;0.30;0.25;;;;;;;;;;4977264;28;20670;-79
2022/06/02 13:59:59;;;;;;;0.20;0.20;;;;;;;;;;4974705;28;20105;-79
2022/06/02 14:02:52;;;;;;;0.20;0.20;;;;;;;;;;4977024;28;20052;-79
2022/06/02 14:05:24;;;;;;;0.17;0.17;;;;;;;;;;4976237;28;20045;-79
2022/06/02 14:08:20;;;;;;;0.10;0.10;;;;;;;;;;4976274;28;20088;-81
2022/06/02 14:10:54;;;;;;;0.57;0.55;;;;;;;;;;4977223;28;20448;-79
2022/06/02 14:13:36;;;;;;;0.20;0.20;;;;;;;;;;4977023;28;20038;-78
2022/06/02 14:16:16;;;;;;;0.20;0.20;;;;;;;;;;4976874;28;20045;-80
2022/06/02 14:19:08;;;;;;;0.35;0.35;;;;;;;;;;4976066;28;20546;-79
2022/06/02 14:21:41;;;;;;;0.25;0.25;;;;;;;;;;4976654;28;20523;-81
2022/06/02 14:24:10;;;;;;;0.17;0.17;;;;;;;;;;4976216;28;20037;-81
2022/06/02 14:26:38;;;;;;;0.43;0.43;;;;;;;;;;4978062;28;20112;-81
2022/06/02 14:29:13;;;;;;;0.43;0.43;;;;;;;;;;4971467;28;20030;-81
2022/06/02 14:31:56;;;;;;;0.47;0.40;;;;;;;;;;4975955;28;20027;-81
2022/06/02 14:34:31;;;;;;;0.40;0.40;;;;;;;;;;4976380;28;20425;-82
2022/06/02 14:37:11;;;;;;;0.65;0.45;;;;;;;;;;4976434;28;20113;-81
2022/06/02 14:39:44;;;;;;;0.25;0.25;;;;;;;;;;4959717;28;20031;-80
2022/06/02 14:45:18;;;;;;;0.20;0.20;;;;;;;;;;4975957;28;20045;-79
2022/06/02 14:48:22;;;;;;;1.65;0.68;;;;;;;;;;4976287;28;20026;-77
2022/06/02 14:50:58;;;;;;;1.13;0.73;;;;;;;;;;4975522;28;20066;-78
2022/06/02 14:53:26;;;;;;;2.38;1.30;;;;;;;;;;4975281;28;20026;-78
2022/06/02 14:56:18;;;;;;;0.80;0.43;;;;;;;;;;4976403;28;20023;-78
2022/06/02 14:58:48;;;;;;;1.27;0.95;;;;;;;;;;4976590;28;20118;-79
2022/06/02 15:01:46;;;;;;;0.85;0.60;;;;;;;;;;4975796;28;20604;-80
2022/06/02 15:04:53;;;;;;;0.70;0.70;;;;;;;;;;4968551;28;20539;-79
2022/06/02 15:07:55;;;;;;;0.88;0.70;;;;;;;;;;4953971;28;20039;-78
2022/06/02 15:10:46;;;;;;;0.38;0.38;;;;;;;;;;4973238;28;20021;-79
2022/06/02 15:13:14;;;;;;;0.50;0.50;;;;;;;;;;4969070;28;20150;-79
2022/06/02 15:16:09;;;;;;;0.20;0.20;;;;;;;;;;4976336;28;20027;-79
2022/06/02 15:19:04;;;;;;;0.63;0.63;;;;;;;;;;4973472;28;20026;-79
2022/06/02 15:22:20;;;;;;;0.73;0.73;;;;;;;;;;4956495;28;20110;-81
2022/06/02 15:25:11;;;;;;;0.50;0.47;;;;;;;;;;4974690;28;20098;-81
2022/06/02 15:27:45;;;;;;;0.73;0.55;;;;;;;;;;4976113;28;20034;-81
2022/06/02 15:30:24;;;;;;;0.77;0.38;;;;;;;;;;4975000;28;20116;-76
2022/06/02 15:33:19;;;;;;;0.47;0.47;;;;;;;;;;4975872;28;20023;-79
2022/06/02 15:35:47;;;;;;;0.40;0.40;;;;;;;;;;4972976;28;20051;-77
2022/06/02 15:38:52;;;;;;;0.52;0.38;;;;;;;;;;4976156;28;20027;-78
2022/06/02 15:41:45;;;;;;;0.50;0.50;;;;;;;;;;4975459;28;20090;-76
2022/06/02 15:44:38;;;;;;;0.28;0.28;;;;;;;;;;4975606;28;20026;-79
2022/06/02 15:47:18;;;;;;;0.30;0.30;;;;;;;;;;4973408;28;20031;-79
2022/06/02 15:50:17;;;;;;;0.73;0.30;;;;;;;;;;4976468;28;20057;-79
2022/06/02 15:52:58;;;;;;;0.60;0.60;;;;;;;;;;4987491;28;20023;-78
2022/06/02 15:55:57;;;;;;;0.10;0.10;;;;;;;;;;4976935;28;20037;-79
2022/06/02 15:59:00;;;;;;;0.25;0.25;;;;;;;;;;4979868;28;20106;-81
2022/06/02 16:01:54;;;;;;;0.10;0.10;;;;;;;;;;4975822;28;20054;-79
2022/06/02 16:04:57;;;;;;;0.20;0.20;;;;;;;;;;4975675;28;20027;-79
2022/06/02 16:07:33;;;;;;;0.15;0.15;;;;;;;;;;4975325;28;20023;-79
2022/06/02 16:13:23;;;;;;;0.30;0.30;;;;;;;;;;4969443;28;20043;-78
2022/06/02 16:16:24;;;;;;;0.25;0.25;;;;;;;;;;4973954;28;20038;-79
2022/06/02 16:19:06;;;;;;;0.32;0.30;;;;;;;;;;4970085;28;20073;-78
2022/06/02 16:22:06;;;;;;;0.20;0.20;;;;;;;;;;4975120;28;20433;-78
2022/06/02 16:24:52;;;;;;;0.10;0.10;;;;;;;;;;4974999;28;20491;-81
2022/06/02 16:27:57;;;;;;;0.20;0.20;;;;;;;;;;4974992;28;20512;-80
2022/06/02 16:30:54;;;;;;;0.30;0.30;;;;;;;;;;4974189;28;20027;-80
2022/06/02 16:33:27;;;;;;;0.13;0.13;;;;;;;;;;4975007;28;20022;-81
2022/06/02 16:36:07;;;;;;;0.10;0.10;;;;;;;;;;4969079;28;20022;-80
2022/06/02 16:39:01;;;;;;;0.20;0.20;;;;;;;;;;4970378;28;20027;-81
2022/06/02 16:41:32;;;;;;;0.17;0.17;;;;;;;;;;5007114;28;20448;-80